TimeCDT,TemperatureF,Dew PointF,Humidity,Sea Level PressureIn,VisibilityMPH,Wind Direction,Wind SpeedMPH,Gust SpeedMPH,PrecipitationIn,Events,Conditions,WindDirDegrees,DateUTC
12:15 AM,53.6,53.6,100,30.21,10.0,Calm,Calm,-,N/A,,Mostly Cloudy,0,2013-07-15 05:15:00
12:35 AM,53.6,53.6,100,30.21,10.0,Calm,Calm,-,N/A,,Mostly Cloudy,0,2013-07-15 05:35:00
12:55 AM,55.4,55.4,100,30.21,10.0,East,4.6,-,N/A,,Overcast,90,2013-07-15 05:55:00
1:15 AM,55.4,53.6,94,30.21,10.0,Calm,Calm,-,N/A,,Overcast,0,2013-07-15 06:15:00
1:35 AM,55.4,53.6,94,30.21,10.0,Calm,Calm,-,N/A,,Overcast,0,2013-07-15 06:35:00
1:55 AM,55.4,53.6,94,30.21,10.0,ENE,4.6,-,N/A,,Overcast,70,2013-07-15 06:55:00
2:15 AM,53.6,51.8,94,30.20,10.0,Calm,Calm,-,N/A,,Scattered Clouds,0,2013-07-15 07:15:00
2:35 AM,53.6,53.6,100,30.20,10.0,Calm,Calm,-,N/A,,Partly Cloudy,0,2013-07-15 07:35:00
2:55 AM,53.6,53.6,100,30.19,10.0,Calm,Calm,-,N/A,,Mostly Cloudy,0,2013-07-15 07:55:00
3:15 AM,55.4,55.4,100,30.19,10.0,Calm,Calm,-,N/A,,Overcast,0,2013-07-15 08:15:00
3:35 AM,55.4,55.4,100,30.19,10.0,Calm,Calm,-,N/A,,Overcast,0,2013-07-15 08:35:00
3:55 AM,55.4,53.6,94,30.19,10.0,Calm,Calm,-,N/A,,Overcast,0,2013-07-15 08:55:00
4:15 AM,57.2,55.4,94,30.18,10.0,East,3.5,-,N/A,,Overcast,80,2013-07-15 09:15:00
4:35 AM,57.2,55.4,94,30.18,10.0,Calm,Calm,-,N/A,,Overcast,0,2013-07-15 09:35:00
4:55 AM,59.0,57.2,94,30.18,10.0,Calm,Calm,-,N/A,,Overcast,0,2013-07-15 09:55:00
5:15 AM,59.0,57.2,94,30.17,10.0,ENE,3.5,-,N/A,,Overcast,70,2013-07-15 10:15:00
5:35 AM,59.0,57.2,94,30.17,10.0,Calm,Calm,-,N/A,,Overcast,0,2013-07-15 10:35:00
5:55 AM,60.8,59.0,94,30.17,10.0,Calm,Calm,-,N/A,,Overcast,0,2013-07-15 10:55:00
6:15 AM,62.6,59.0,88,30.17,10.0,Calm,Calm,-,N/A,,Overcast,0,2013-07-15 11:15:00
6:35 AM,62.6,59.0,88,30.17,10.0,Calm,Calm,-,N/A,,Overcast,0,2013-07-15 11:35:00
6:55 AM,62.6,60.8,94,30.16,10.0,Calm,Calm,-,N/A,,Overcast,0,2013-07-15 11:55:00
7:15 AM,62.6,60.8,94,30.16,10.0,Calm,Calm,-,N/A,,Overcast,0,2013-07-15 12:15:00
7:35 AM,62.6,60.8,94,30.16,10.0,Calm,Calm,-,N/A,,Overcast,0,2013-07-15 12:35:00
7:55 AM,64.4,62.6,94,30.16,10.0,ESE,4.6,-,N/A,,Overcast,120,2013-07-15 12:55:00
8:15 AM,64.4,62.6,94,30.16,10.0,SE,6.9,-,N/A,,Overcast,130,2013-07-15 13:15:00
8:35 AM,64.4,62.6,94,30.15,10.0,SE,10.4,-,N/A,,Overcast,130,2013-07-15 13:35:00
8:55 AM,66.2,62.6,88,30.15,10.0,SE,11.5,-,N/A,,Overcast,130,2013-07-15 13:55:00
9:15 AM,66.2,62.6,88,30.15,10.0,SE,11.5,-,N/A,,Overcast,140,2013-07-15 14:15:00
9:35 AM,66.2,62.6,88,30.14,9.0,SE,9.2,-,N/A,,Overcast,130,2013-07-15 14:35:00
9:55 AM,68.0,64.4,88,30.14,10.0,SE,11.5,-,N/A,,Overcast,130,2013-07-15 14:55:00
10:15 AM,68.0,64.4,88,30.13,10.0,ESE,9.2,-,N/A,,Overcast,110,2013-07-15 15:15:00
10:35 AM,68.0,64.4,88,30.13,10.0,SE,11.5,16.1,N/A,,Overcast,130,2013-07-15 15:35:00
10:55 AM,71.6,64.4,78,30.12,10.0,SE,13.8,17.3,N/A,,Mostly Cloudy,130,2013-07-15 15:55:00
11:15 AM,73.4,66.2,78,30.12,10.0,SE,13.8,18.4,N/A,,Mostly Cloudy,130,2013-07-15 16:15:00
11:35 AM,73.4,64.4,73,30.12,10.0,SE,12.7,24.2,N/A,,Mostly Cloudy,140,2013-07-15 16:35:00
11:55 AM,73.4,64.4,73,30.11,10.0,SSE,10.4,-,N/A,,Overcast,150,2013-07-15 16:55:00
12:15 PM,71.6,64.4,78,30.11,10.0,SE,12.7,18.4,N/A,,Overcast,130,2013-07-15 17:15:00
12:35 PM,73.4,66.2,78,30.10,10.0,SE,10.4,-,N/A,,Overcast,140,2013-07-15 17:35:00
12:55 PM,73.4,66.2,78,30.10,10.0,SE,13.8,19.6,N/A,,Overcast,130,2013-07-15 17:55:00
1:15 PM,73.4,66.2,78,30.09,10.0,SSE,12.7,-,N/A,,Overcast,150,2013-07-15 18:15:00
1:35 PM,75.2,66.2,73,30.08,10.0,SE,11.5,-,N/A,,Overcast,140,2013-07-15 18:35:00
1:55 PM,75.2,66.2,73,30.08,10.0,SE,11.5,-,N/A,,Overcast,140,2013-07-15 18:55:00
2:15 PM,77.0,66.2,69,30.07,10.0,SSE,12.7,19.6,N/A,,Overcast,150,2013-07-15 19:15:00
2:35 PM,77.0,68.0,74,30.06,10.0,SSE,18.4,21.9,N/A,,Mostly Cloudy,150,2013-07-15 19:35:00
2:55 PM,78.8,68.0,69,30.06,10.0,SE,12.7,18.4,N/A,,Mostly Cloudy,140,2013-07-15 19:55:00
3:15 PM,77.0,68.0,74,30.05,10.0,SSE,15.0,21.9,N/A,,Overcast,150,2013-07-15 20:15:00
3:35 PM,77.0,68.0,74,30.04,10.0,SSE,15.0,18.4,N/A,,Overcast,150,2013-07-15 20:35:00
3:55 PM,77.0,68.0,74,30.04,10.0,SE,13.8,19.6,N/A,,Overcast,140,2013-07-15 20:55:00
4:15 PM,77.0,68.0,74,30.03,10.0,SSE,12.7,-,N/A,,Overcast,150,2013-07-15 21:15:00
4:35 PM,77.0,68.0,74,30.03,10.0,SSE,11.5,-,N/A,,Overcast,150,2013-07-15 21:35:00
4:55 PM,77.0,69.8,78,30.02,10.0,SSE,11.5,16.1,N/A,,Overcast,150,2013-07-15 21:55:00
5:15 PM,78.8,69.8,74,30.01,10.0,SSE,11.5,-,N/A,,Overcast,150,2013-07-15 22:15:00
5:35 PM,78.8,69.8,74,30.00,10.0,SSE,10.4,-,N/A,,Overcast,150,2013-07-15 22:35:00
5:55 PM,80.6,69.8,70,29.99,10.0,SE,12.7,17.3,N/A,,Scattered Clouds,140,2013-07-15 22:55:00
6:15 PM,80.6,69.8,70,29.98,10.0,SE,9.2,-,N/A,,Mostly Cloudy,140,2013-07-15 23:15:00
6:35 PM,82.4,69.8,66,29.97,10.0,SSE,9.2,-,N/A,,Scattered Clouds,160,2013-07-15 23:35:00
6:55 PM,80.6,71.6,74,29.96,10.0,SSE,9.2,-,N/A,,Scattered Clouds,160,2013-07-15 23:55:00
7:15 PM,80.6,71.6,74,29.95,10.0,SSE,10.4,-,N/A,,Partly Cloudy,160,2013-07-16 00:15:00
7:35 PM,80.6,71.6,74,29.95,10.0,SE,9.2,-,N/A,,Mostly Cloudy,130,2013-07-16 00:35:00
7:55 PM,78.8,71.6,78,29.94,10.0,SE,6.9,-,N/A,,Partly Cloudy,140,2013-07-16 00:55:00
8:15 PM,77.0,69.8,78,29.94,10.0,South,6.9,-,N/A,,Clear,170,2013-07-16 01:15:00
8:35 PM,77.0,69.8,78,29.94,9.0,SE,6.9,-,N/A,,Scattered Clouds,140,2013-07-16 01:35:00
8:55 PM,77.0,69.8,78,29.93,10.0,SSE,9.2,-,N/A,,Partly Cloudy,150,2013-07-16 01:55:00
9:15 PM,77.0,69.8,78,29.93,10.0,SSE,6.9,-,N/A,Rain,Light Rain,150,2013-07-16 02:15:00
9:35 PM,75.2,69.8,83,29.93,10.0,SE,4.6,-,N/A,,Clear,130,2013-07-16 02:35:00
9:55 PM,75.2,68.0,78,29.93,10.0,SE,6.9,-,N/A,,Clear,130,2013-07-16 02:55:00
10:35 PM,75.2,66.2,73,29.94,10.0,SSE,9.2,-,N/A,,Clear,160,2013-07-16 03:35:00
10:55 PM,75.2,64.4,69,29.95,10.0,SSE,11.5,18.4,N/A,,Clear,160,2013-07-16 03:55:00
11:15 PM,73.4,64.4,73,29.94,10.0,SSE,12.7,18.4,N/A,,Clear,160,2013-07-16 04:15:00
11:35 PM,75.2,64.4,69,29.94,10.0,SSE,16.1,-,N/A,,Partly Cloudy,160,2013-07-16 04:35:00
11:55 PM,73.4,62.6,69,29.94,10.0,SSE,16.1,21.9,N/A,,Mostly Cloudy,160,2013-07-16 04:55:00